sensor_id;sensor_type;location;lat;lon;timestamp;pressure;altitude;pressure_sealevel;temperature;humidity
55801;BME280;41730;51.960;20.158;2023-02-14T00:00:30;101816.28;;;5.71;71.41
55801;BME280;41730;51.960;20.158;2023-02-14T00:03:03;101815.31;;;5.79;71.33
55801;BME280;41730;51.960;20.158;2023-02-14T00:16:58;101817.97;;;5.83;70.95
55801;BME280;41730;51.960;20.158;2023-02-14T00:19:30;101823.79;;;5.71;71.26
55801;BME280;41730;51.960;20.158;2023-02-14T00:22:04;101828.06;;;5.68;71.36
55801;BME280;41730;51.960;20.158;2023-02-14T00:24:36;101825.69;;;5.66;71.65
55801;BME280;41730;51.960;20.158;2023-02-14T00:27:08;101826.59;;;5.70;71.53
55801;BME280;41730;51.960;20.158;2023-02-14T00:29:41;101823.13;;;5.80;71.16
55801;BME280;41730;51.960;20.158;2023-02-14T00:32:13;101824.77;;;5.82;71.09
55801;BME280;41730;51.960;20.158;2023-02-14T00:34:45;101830.70;;;5.86;71.01
55801;BME280;41730;51.960;20.158;2023-02-14T00:37:22;101824.97;;;5.72;71.33
55801;BME280;41730;51.960;20.158;2023-02-14T00:39:55;101826.25;;;5.61;71.76
55801;BME280;41730;51.960;20.158;2023-02-14T00:42:27;101826.36;;;5.58;71.76
55801;BME280;41730;51.960;20.158;2023-02-14T00:44:59;101823.14;;;5.65;71.63
55801;BME280;41730;51.960;20.158;2023-02-14T00:47:32;101818.96;;;5.74;71.25
55801;BME280;41730;51.960;20.158;2023-02-14T00:50:07;101809.02;;;5.61;71.49
55801;BME280;41730;51.960;20.158;2023-02-14T00:52:39;101804.48;;;5.51;71.84
55801;BME280;41730;51.960;20.158;2023-02-14T00:55:10;101805.34;;;5.57;71.70
55801;BME280;41730;51.960;20.158;2023-02-14T00:57:42;101798.84;;;5.63;71.55
55801;BME280;41730;51.960;20.158;2023-02-14T01:00:18;101796.42;;;5.53;71.72
55801;BME280;41730;51.960;20.158;2023-02-14T01:02:50;101804.27;;;5.57;71.89
55801;BME280;41730;51.960;20.158;2023-02-14T01:05:22;101809.14;;;5.48;71.92
55801;BME280;41730;51.960;20.158;2023-02-14T01:07:54;101808.05;;;5.59;71.84
55801;BME280;41730;51.960;20.158;2023-02-14T01:10:26;101806.52;;;5.67;71.53
55801;BME280;41730;51.960;20.158;2023-02-14T01:13:02;101801.26;;;5.64;71.38
55801;BME280;41730;51.960;20.158;2023-02-14T01:15:39;101805.31;;;5.58;71.56
55801;BME280;41730;51.960;20.158;2023-02-14T01:18:11;101808.32;;;5.61;71.50
55801;BME280;41730;51.960;20.158;2023-02-14T01:20:45;101806.72;;;5.66;71.47
55801;BME280;41730;51.960;20.158;2023-02-14T01:23:17;101810.17;;;5.58;71.69
55801;BME280;41730;51.960;20.158;2023-02-14T01:25:49;101814.04;;;5.57;71.87
55801;BME280;41730;51.960;20.158;2023-02-14T01:28:21;101808.36;;;5.64;71.46
55801;BME280;41730;51.960;20.158;2023-02-14T01:30:52;101816.04;;;5.49;71.81
55801;BME280;41730;51.960;20.158;2023-02-14T01:33:24;101813.69;;;5.42;72.11
55801;BME280;41730;51.960;20.158;2023-02-14T01:35:57;101812.80;;;5.48;72.15
55801;BME280;41730;51.960;20.158;2023-02-14T01:38:30;101809.83;;;5.52;71.71
55801;BME280;41730;51.960;20.158;2023-02-14T01:41:03;101808.95;;;5.58;71.58
55801;BME280;41730;51.960;20.158;2023-02-14T01:43:52;101814.83;;;5.59;71.44
55801;BME280;41730;51.960;20.158;2023-02-14T01:46:27;101812.83;;;5.47;71.87
55801;BME280;41730;51.960;20.158;2023-02-14T01:49:02;101810.34;;;5.43;71.84
55801;BME280;41730;51.960;20.158;2023-02-14T01:51:36;101806.55;;;5.42;72.01
55801;BME280;41730;51.960;20.158;2023-02-14T01:54:07;101808.81;;;5.38;72.08
55801;BME280;41730;51.960;20.158;2023-02-14T01:56:44;101810.55;;;5.38;72.02
55801;BME280;41730;51.960;20.158;2023-02-14T01:59:20;101804.36;;;5.30;72.24
55801;BME280;41730;51.960;20.158;2023-02-14T02:01:53;101795.94;;;5.38;71.93
55801;BME280;41730;51.960;20.158;2023-02-14T02:04:29;101801.86;;;5.42;71.88
55801;BME280;41730;51.960;20.158;2023-02-14T02:07:04;101803.59;;;5.38;71.99
55801;BME280;41730;51.960;20.158;2023-02-14T02:09:35;101803.85;;;5.30;72.12
55801;BME280;41730;51.960;20.158;2023-02-14T02:12:09;101803.44;;;5.22;72.24
55801;BME280;41730;51.960;20.158;2023-02-14T02:14:42;101800.78;;;5.18;72.41
55801;BME280;41730;51.960;20.158;2023-02-14T02:17:22;101797.66;;;5.13;72.55
55801;BME280;41730;51.960;20.158;2023-02-14T02:20:25;101805.23;;;5.10;72.57
55801;BME280;41730;51.960;20.158;2023-02-14T02:32:40;101820.04;;;5.25;72.45
55801;BME280;41730;51.960;20.158;2023-02-14T02:35:40;101821.45;;;5.34;72.08
55801;BME280;41730;51.960;20.158;2023-02-14T02:38:27;101825.65;;;5.28;72.24
55801;BME280;41730;51.960;20.158;2023-02-14T02:41:06;101826.04;;;5.32;72.07
55801;BME280;41730;51.960;20.158;2023-02-14T02:43:46;101825.65;;;5.28;72.42
55801;BME280;41730;51.960;20.158;2023-02-14T02:46:28;101828.62;;;5.23;72.30
55801;BME280;41730;51.960;20.158;2023-02-14T02:49:28;101828.16;;;5.11;72.70
55801;BME280;41730;51.960;20.158;2023-02-14T02:52:26;101827.89;;;5.04;72.89
55801;BME280;41730;51.960;20.158;2023-02-14T02:55:22;101832.92;;;5.04;73.02
55801;BME280;41730;51.960;20.158;2023-02-14T02:57:57;101830.61;;;5.00;73.15
55801;BME280;41730;51.960;20.158;2023-02-14T03:00:31;101834.09;;;5.00;73.27
55801;BME280;41730;51.960;20.158;2023-02-14T03:03:03;101833.60;;;4.99;73.01
55801;BME280;41730;51.960;20.158;2023-02-14T03:05:54;101832.73;;;4.84;73.38
55801;BME280;41730;51.960;20.158;2023-02-14T03:08:26;101836.38;;;4.79;73.76
55801;BME280;41730;51.960;20.158;2023-02-14T03:10:58;101839.05;;;4.92;73.67
55801;BME280;41730;51.960;20.158;2023-02-14T03:13:52;101843.73;;;4.87;73.49
55801;BME280;41730;51.960;20.158;2023-02-14T03:16:31;101840.09;;;4.87;73.53
55801;BME280;41730;51.960;20.158;2023-02-14T03:19:28;101843.20;;;4.87;73.38
55801;BME280;41730;51.960;20.158;2023-02-14T03:22:24;101851.02;;;4.87;73.52
55801;BME280;41730;51.960;20.158;2023-02-14T03:25:08;101857.40;;;4.88;73.41
55801;BME280;41730;51.960;20.158;2023-02-14T03:27:44;101857.64;;;4.81;73.83
55801;BME280;41730;51.960;20.158;2023-02-14T03:30:22;101856.71;;;4.73;74.02
55801;BME280;41730;51.960;20.158;2023-02-14T03:33:00;101860.95;;;4.70;74.22
55801;BME280;41730;51.960;20.158;2023-02-14T03:35:39;101863.02;;;4.82;73.98
55801;BME280;41730;51.960;20.158;2023-02-14T03:38:18;101858.64;;;4.83;73.73
55801;BME280;41730;51.960;20.158;2023-02-14T03:40:54;101861.65;;;4.81;73.76
55801;BME280;41730;51.960;20.158;2023-02-14T03:43:30;101859.43;;;4.80;73.97
55801;BME280;41730;51.960;20.158;2023-02-14T03:46:07;101868.39;;;4.72;74.30
55801;BME280;41730;51.960;20.158;2023-02-14T03:48:42;101862.80;;;4.72;74.28
55801;BME280;41730;51.960;20.158;2023-02-14T03:51:17;101854.74;;;4.85;73.75
55801;BME280;41730;51.960;20.158;2023-02-14T03:53:50;101860.16;;;4.79;73.79
55801;BME280;41730;51.960;20.158;2023-02-14T03:56:31;101859.19;;;4.66;74.20
55801;BME280;41730;51.960;20.158;2023-02-14T03:59:08;101861.97;;;4.71;74.11
55801;BME280;41730;51.960;20.158;2023-02-14T04:01:49;101868.14;;;4.68;74.13
55801;BME280;41730;51.960;20.158;2023-02-14T04:04:26;101860.54;;;4.72;74.10
55801;BME280;41730;51.960;20.158;2023-02-14T04:07:09;101863.14;;;4.73;73.89
55801;BME280;41730;51.960;20.158;2023-02-14T04:09:42;101863.61;;;4.63;74.25
55801;BME280;41730;51.960;20.158;2023-02-14T04:12:15;101856.73;;;4.61;74.43
55801;BME280;41730;51.960;20.158;2023-02-14T04:14:53;101863.66;;;4.56;74.44
55801;BME280;41730;51.960;20.158;2023-02-14T04:17:24;101866.64;;;4.50;74.62
55801;BME280;41730;51.960;20.158;2023-02-14T04:20:14;101860.32;;;4.46;74.69
55801;BME280;41730;51.960;20.158;2023-02-14T04:22:45;101857.97;;;4.43;74.97
55801;BME280;41730;51.960;20.158;2023-02-14T04:28:46;101866.93;;;4.57;74.73
55801;BME280;41730;51.960;20.158;2023-02-14T04:31:25;101859.16;;;4.62;74.21
55801;BME280;41730;51.960;20.158;2023-02-14T04:34:00;101866.89;;;4.47;74.71
55801;BME280;41730;51.960;20.158;2023-02-14T04:36:32;101864.52;;;4.39;74.89
55801;BME280;41730;51.960;20.158;2023-02-14T04:39:04;101857.59;;;4.45;74.98
55801;BME280;41730;51.960;20.158;2023-02-14T04:41:36;101861.04;;;4.51;74.47
55801;BME280;41730;51.960;20.158;2023-02-14T04:44:08;101862.79;;;4.44;74.77
55801;BME280;41730;51.960;20.158;2023-02-14T04:46:41;101870.00;;;4.42;75.06
55801;BME280;41730;51.960;20.158;2023-02-14T04:49:14;101877.40;;;4.38;75.00
55801;BME280;41730;51.960;20.158;2023-02-14T04:51:46;101861.44;;;4.26;75.26
55801;BME280;41730;51.960;20.158;2023-02-14T04:54:17;101873.47;;;4.25;75.28
55801;BME280;41730;51.960;20.158;2023-02-14T04:56:49;101879.58;;;4.24;75.57
55801;BME280;41730;51.960;20.158;2023-02-14T04:59:21;101883.83;;;4.32;75.14
55801;BME280;41730;51.960;20.158;2023-02-14T05:01:54;101885.95;;;4.31;75.16
55801;BME280;41730;51.960;20.158;2023-02-14T05:04:26;101884.72;;;4.25;75.40
55801;BME280;41730;51.960;20.158;2023-02-14T05:06:58;101887.64;;;4.27;75.32
55801;BME280;41730;51.960;20.158;2023-02-14T05:09:30;101888.34;;;4.32;75.18
55801;BME280;41730;51.960;20.158;2023-02-14T05:12:01;101894.31;;;4.30;75.12
55801;BME280;41730;51.960;20.158;2023-02-14T05:14:33;101896.11;;;4.22;75.50
55801;BME280;41730;51.960;20.158;2023-02-14T05:17:05;101896.96;;;4.23;75.58
55801;BME280;41730;51.960;20.158;2023-02-14T05:19:37;101900.86;;;4.26;75.36
55801;BME280;41730;51.960;20.158;2023-02-14T05:22:09;101904.70;;;4.37;75.11
55801;BME280;41730;51.960;20.158;2023-02-14T05:24:41;101906.61;;;4.37;75.07
55801;BME280;41730;51.960;20.158;2023-02-14T05:27:12;101901.92;;;4.32;75.27
55801;BME280;41730;51.960;20.158;2023-02-14T05:29:44;101892.99;;;4.28;75.48
55801;BME280;41730;51.960;20.158;2023-02-14T05:32:16;101901.99;;;4.29;75.45
55801;BME280;41730;51.960;20.158;2023-02-14T05:34:47;101906.52;;;4.23;75.46
55801;BME280;41730;51.960;20.158;2023-02-14T05:37:19;101906.10;;;4.19;75.59
55801;BME280;41730;51.960;20.158;2023-02-14T05:39:50;101895.73;;;4.22;75.48
55801;BME280;41730;51.960;20.158;2023-02-14T05:42:22;101900.42;;;4.17;75.51
55801;BME280;41730;51.960;20.158;2023-02-14T05:44:54;101910.00;;;4.10;75.89
55801;BME280;41730;51.960;20.158;2023-02-14T05:47:26;101908.90;;;4.06;76.16
55801;BME280;41730;51.960;20.158;2023-02-14T05:49:57;101907.31;;;4.14;75.74
55801;BME280;41730;51.960;20.158;2023-02-14T05:52:29;101902.96;;;4.14;75.96
55801;BME280;41730;51.960;20.158;2023-02-14T05:55:01;101914.30;;;4.18;75.78
55801;BME280;41730;51.960;20.158;2023-02-14T05:57:33;101926.08;;;4.25;75.43
55801;BME280;41730;51.960;20.158;2023-02-14T06:00:07;101926.18;;;4.15;75.71
55801;BME280;41730;51.960;20.158;2023-02-14T06:02:39;101923.96;;;4.14;75.93
55801;BME280;41730;51.960;20.158;2023-02-14T06:05:11;101922.59;;;4.13;75.83
55801;BME280;41730;51.960;20.158;2023-02-14T06:07:44;101926.86;;;4.10;75.95
55801;BME280;41730;51.960;20.158;2023-02-14T06:10:22;101931.39;;;4.21;75.88
55801;BME280;41730;51.960;20.158;2023-02-14T06:12:54;101934.17;;;4.20;75.56
55801;BME280;41730;51.960;20.158;2023-02-14T06:15:26;101936.29;;;4.14;75.94
55801;BME280;41730;51.960;20.158;2023-02-14T06:17:58;101935.76;;;4.08;75.96
55801;BME280;41730;51.960;20.158;2023-02-14T06:20:31;101933.52;;;4.00;76.32
55801;BME280;41730;51.960;20.158;2023-02-14T06:23:03;101937.84;;;4.08;76.36
55801;BME280;41730;51.960;20.158;2023-02-14T06:25:34;101939.36;;;4.21;75.89
55801;BME280;41730;51.960;20.158;2023-02-14T06:28:06;101942.05;;;4.24;75.75
55801;BME280;41730;51.960;20.158;2023-02-14T06:30:38;101943.77;;;4.25;75.57
55801;BME280;41730;51.960;20.158;2023-02-14T06:33:10;101945.94;;;4.16;75.74
55801;BME280;41730;51.960;20.158;2023-02-14T06:35:42;101945.03;;;4.12;75.85
55801;BME280;41730;51.960;20.158;2023-02-14T06:38:14;101945.48;;;4.08;76.16
55801;BME280;41730;51.960;20.158;2023-02-14T06:40:45;101941.67;;;4.01;76.33
55801;BME280;41730;51.960;20.158;2023-02-14T06:43:18;101944.34;;;3.98;76.61
55801;BME280;41730;51.960;20.158;2023-02-14T06:45:50;101944.67;;;4.05;76.24
55801;BME280;41730;51.960;20.158;2023-02-14T06:48:22;101940.60;;;3.96;76.54
55801;BME280;41730;51.960;20.158;2023-02-14T06:50:54;101944.80;;;4.01;76.47
55801;BME280;41730;51.960;20.158;2023-02-14T06:53:28;101950.33;;;3.95;76.64
55801;BME280;41730;51.960;20.158;2023-02-14T06:56:00;101959.48;;;3.96;76.73
55801;BME280;41730;51.960;20.158;2023-02-14T06:58:33;101960.71;;;3.90;76.80
55801;BME280;41730;51.960;20.158;2023-02-14T07:01:07;101952.75;;;3.89;76.90
55801;BME280;41730;51.960;20.158;2023-02-14T07:03:41;101960.36;;;3.96;76.95
55801;BME280;41730;51.960;20.158;2023-02-14T07:06:13;101960.39;;;3.95;77.02
55801;BME280;41730;51.960;20.158;2023-02-14T07:08:45;101961.15;;;3.99;76.93
55801;BME280;41730;51.960;20.158;2023-02-14T07:11:18;101960.27;;;4.00;76.91
55801;BME280;41730;51.960;20.158;2023-02-14T07:13:50;101955.98;;;4.04;76.74
55801;BME280;41730;51.960;20.158;2023-02-14T07:16:22;101960.61;;;4.00;76.78
55801;BME280;41730;51.960;20.158;2023-02-14T07:18:53;101959.31;;;3.90;77.07
55801;BME280;41730;51.960;20.158;2023-02-14T07:21:26;101956.97;;;3.81;77.40
55801;BME280;41730;51.960;20.158;2023-02-14T07:23:58;101956.56;;;3.83;77.43
55801;BME280;41730;51.960;20.158;2023-02-14T07:26:30;101963.79;;;3.92;77.18
55801;BME280;41730;51.960;20.158;2023-02-14T07:29:05;101968.52;;;4.03;76.79
55801;BME280;41730;51.960;20.158;2023-02-14T07:31:37;101974.26;;;4.09;76.48
55801;BME280;41730;51.960;20.158;2023-02-14T07:34:09;101976.80;;;4.11;76.35
55801;BME280;41730;51.960;20.158;2023-02-14T07:36:41;101973.19;;;4.10;76.52
55801;BME280;41730;51.960;20.158;2023-02-14T07:39:14;101977.48;;;4.12;76.27
55801;BME280;41730;51.960;20.158;2023-02-14T07:41:46;101983.52;;;4.19;76.13
55801;BME280;41730;51.960;20.158;2023-02-14T07:44:18;101978.70;;;4.05;76.56
55801;BME280;41730;51.960;20.158;2023-02-14T07:46:50;101978.95;;;3.89;77.04
55801;BME280;41730;51.960;20.158;2023-02-14T07:49:23;101978.20;;;3.78;77.52
55801;BME280;41730;51.960;20.158;2023-02-14T07:51:55;101981.42;;;3.74;77.74
55801;BME280;41730;51.960;20.158;2023-02-14T07:54:27;101985.70;;;3.97;77.26
55801;BME280;41730;51.960;20.158;2023-02-14T07:57:00;101988.52;;;4.01;76.92
55801;BME280;41730;51.960;20.158;2023-02-14T07:59:32;101988.61;;;4.04;76.99
55801;BME280;41730;51.960;20.158;2023-02-14T08:02:04;101991.86;;;3.99;77.07
55801;BME280;41730;51.960;20.158;2023-02-14T08:04:36;101989.72;;;3.83;77.62
55801;BME280;41730;51.960;20.158;2023-02-14T08:07:08;101985.48;;;3.78;77.82
55801;BME280;41730;51.960;20.158;2023-02-14T08:09:39;101991.89;;;3.85;77.76
55801;BME280;41730;51.960;20.158;2023-02-14T08:12:11;101988.92;;;3.92;77.57
55801;BME280;41730;51.960;20.158;2023-02-14T08:15:00;101990.00;;;3.92;77.61
55801;BME280;41730;51.960;20.158;2023-02-14T08:17:46;101992.53;;;3.93;77.50
55801;BME280;41730;51.960;20.158;2023-02-14T08:20:19;101997.50;;;4.03;77.32
55801;BME280;41730;51.960;20.158;2023-02-14T08:22:52;101992.90;;;4.06;77.18
55801;BME280;41730;51.960;20.158;2023-02-14T08:25:23;101990.73;;;4.10;77.16
55801;BME280;41730;51.960;20.158;2023-02-14T08:27:55;101994.52;;;4.11;77.16
55801;BME280;41730;51.960;20.158;2023-02-14T08:30:27;102004.21;;;4.05;77.28
55801;BME280;41730;51.960;20.158;2023-02-14T08:32:59;102005.62;;;4.04;77.38
55801;BME280;41730;51.960;20.158;2023-02-14T08:35:30;102003.19;;;4.05;77.42
55801;BME280;41730;51.960;20.158;2023-02-14T08:38:03;102000.02;;;4.06;77.17
55801;BME280;41730;51.960;20.158;2023-02-14T08:40:35;102012.55;;;4.12;77.35
55801;BME280;41730;51.960;20.158;2023-02-14T08:43:07;102015.95;;;4.15;77.43
55801;BME280;41730;51.960;20.158;2023-02-14T08:45:40;102010.90;;;4.21;77.16
55801;BME280;41730;51.960;20.158;2023-02-14T08:48:13;102015.13;;;4.25;76.91
55801;BME280;41730;51.960;20.158;2023-02-14T08:50:45;102015.89;;;4.23;77.18
55801;BME280;41730;51.960;20.158;2023-02-14T08:53:16;102016.32;;;4.26;77.19
55801;BME280;41730;51.960;20.158;2023-02-14T08:55:48;102016.67;;;4.32;76.94
55801;BME280;41730;51.960;20.158;2023-02-14T08:58:20;102020.40;;;4.30;76.97
55801;BME280;41730;51.960;20.158;2023-02-14T09:00:52;102020.48;;;4.20;77.20
55801;BME280;41730;51.960;20.158;2023-02-14T09:03:24;102020.27;;;4.21;77.24
55801;BME280;41730;51.960;20.158;2023-02-14T09:05:57;102011.23;;;4.16;77.48
55801;BME280;41730;51.960;20.158;2023-02-14T09:08:32;102020.05;;;4.23;77.18
55801;BME280;41730;51.960;20.158;2023-02-14T09:11:09;102023.77;;;4.20;77.32
55801;BME280;41730;51.960;20.158;2023-02-14T09:13:44;102025.88;;;4.26;77.30
55801;BME280;41730;51.960;20.158;2023-02-14T09:16:19;102023.48;;;4.31;77.27
55801;BME280;41730;51.960;20.158;2023-02-14T09:18:52;102026.69;;;4.28;77.12
55801;BME280;41730;51.960;20.158;2023-02-14T09:21:27;102028.27;;;4.21;77.42
55801;BME280;41730;51.960;20.158;2023-02-14T09:23:59;102027.10;;;4.25;77.49
55801;BME280;41730;51.960;20.158;2023-02-14T09:26:31;102030.91;;;4.25;77.46
55801;BME280;41730;51.960;20.158;2023-02-14T09:29:02;102030.36;;;4.20;77.57
55801;BME280;41730;51.960;20.158;2023-02-14T09:31:35;102032.22;;;4.22;77.39
55801;BME280;41730;51.960;20.158;2023-02-14T09:34:07;102034.61;;;4.24;77.31
55801;BME280;41730;51.960;20.158;2023-02-14T09:36:41;102029.90;;;4.18;77.57
55801;BME280;41730;51.960;20.158;2023-02-14T09:39:30;102037.11;;;4.28;77.41
55801;BME280;41730;51.960;20.158;2023-02-14T09:42:38;102040.56;;;4.35;77.38
55801;BME280;41730;51.960;20.158;2023-02-14T09:45:15;102041.54;;;4.37;77.42
55801;BME280;41730;51.960;20.158;2023-02-14T09:47:51;102047.51;;;4.35;77.22
55801;BME280;41730;51.960;20.158;2023-02-14T09:50:28;102048.23;;;4.34;77.60
55801;BME280;41730;51.960;20.158;2023-02-14T09:53:07;102045.29;;;4.40;77.43
55801;BME280;41730;51.960;20.158;2023-02-14T09:55:49;102043.85;;;4.42;77.23
55801;BME280;41730;51.960;20.158;2023-02-14T09:58:24;102043.02;;;4.46;77.02
55801;BME280;41730;51.960;20.158;2023-02-14T10:01:05;102046.52;;;4.46;77.19
55801;BME280;41730;51.960;20.158;2023-02-14T10:04:12;102045.48;;;4.45;77.01
55801;BME280;41730;51.960;20.158;2023-02-14T10:06:57;102050.34;;;4.58;76.95
55801;BME280;41730;51.960;20.158;2023-02-14T10:09:51;102052.20;;;4.66;76.64
55801;BME280;41730;51.960;20.158;2023-02-14T10:12:25;102051.21;;;4.64;76.75
55801;BME280;41730;51.960;20.158;2023-02-14T10:15:04;102050.46;;;4.66;76.48
55801;BME280;41730;51.960;20.158;2023-02-14T10:17:41;102047.54;;;4.71;76.33
55801;BME280;41730;51.960;20.158;2023-02-14T10:20:25;102041.98;;;4.70;76.32
55801;BME280;41730;51.960;20.158;2023-02-14T10:23:04;102040.68;;;4.80;76.26
55801;BME280;41730;51.960;20.158;2023-02-14T10:25:42;102038.48;;;4.72;76.46
55801;BME280;41730;51.960;20.158;2023-02-14T10:28:18;102024.48;;;4.69;76.27
55801;BME280;41730;51.960;20.158;2023-02-14T10:31:00;102037.80;;;4.71;76.45
55801;BME280;41730;51.960;20.158;2023-02-14T10:33:38;102037.37;;;4.68;76.69
55801;BME280;41730;51.960;20.158;2023-02-14T10:36:16;102039.45;;;4.74;76.48
55801;BME280;41730;51.960;20.158;2023-02-14T10:38:59;102034.04;;;4.75;76.48
55801;BME280;41730;51.960;20.158;2023-02-14T10:41:39;102032.89;;;4.73;76.64
55801;BME280;41730;51.960;20.158;2023-02-14T10:44:24;102037.04;;;4.67;76.84
55801;BME280;41730;51.960;20.158;2023-02-14T10:47:07;102038.14;;;4.72;76.95
55801;BME280;41730;51.960;20.158;2023-02-14T10:49:48;102035.95;;;4.75;76.67
55801;BME280;41730;51.960;20.158;2023-02-14T10:52:27;102032.00;;;4.74;76.68
55801;BME280;41730;51.960;20.158;2023-02-14T10:55:11;102028.23;;;4.71;76.76
55801;BME280;41730;51.960;20.158;2023-02-14T10:58:03;102021.83;;;4.82;76.57
55801;BME280;41730;51.960;20.158;2023-02-14T11:00:40;102023.33;;;4.91;76.26
55801;BME280;41730;51.960;20.158;2023-02-14T11:03:14;102021.95;;;5.02;76.08
55801;BME280;41730;51.960;20.158;2023-02-14T11:05:47;102023.62;;;5.04;76.12
55801;BME280;41730;51.960;20.158;2023-02-14T11:08:25;102019.83;;;5.03;76.27
55801;BME280;41730;51.960;20.158;2023-02-14T11:11:01;102022.77;;;5.04;76.22
55801;BME280;41730;51.960;20.158;2023-02-14T11:13:37;102021.37;;;5.03;76.22
55801;BME280;41730;51.960;20.158;2023-02-14T11:16:10;102021.31;;;5.00;76.26
55801;BME280;41730;51.960;20.158;2023-02-14T11:18:43;102014.25;;;4.92;76.46
55801;BME280;41730;51.960;20.158;2023-02-14T11:21:15;102017.46;;;4.89;76.41
55801;BME280;41730;51.960;20.158;2023-02-14T11:23:51;102020.67;;;4.98;76.50
55801;BME280;41730;51.960;20.158;2023-02-14T11:26:25;102013.35;;;5.10;75.99
55801;BME280;41730;51.960;20.158;2023-02-14T11:28:57;102012.19;;;5.03;76.04
55801;BME280;41730;51.960;20.158;2023-02-14T11:31:32;102013.79;;;5.02;76.05
55801;BME280;41730;51.960;20.158;2023-02-14T11:34:14;102013.38;;;4.98;76.23
55801;BME280;41730;51.960;20.158;2023-02-14T11:36:52;102009.70;;;5.04;76.15
55801;BME280;41730;51.960;20.158;2023-02-14T11:39:29;102007.31;;;5.08;76.10
55801;BME280;41730;51.960;20.158;2023-02-14T11:42:03;102012.10;;;5.05;76.22
55801;BME280;41730;51.960;20.158;2023-02-14T11:44:36;102012.11;;;5.11;76.19
55801;BME280;41730;51.960;20.158;2023-02-14T11:47:28;102009.59;;;5.13;75.91
55801;BME280;41730;51.960;20.158;2023-02-14T11:50:03;102008.81;;;5.11;76.18
55801;BME280;41730;51.960;20.158;2023-02-14T11:52:50;102010.08;;;5.15;76.12
55801;BME280;41730;51.960;20.158;2023-02-14T11:55:26;102003.27;;;5.26;75.91
55801;BME280;41730;51.960;20.158;2023-02-14T11:57:58;102001.02;;;5.31;75.70
55801;BME280;41730;51.960;20.158;2023-02-14T12:00:32;102001.38;;;5.31;75.58
55801;BME280;41730;51.960;20.158;2023-02-14T12:03:05;102002.39;;;5.27;75.58
55801;BME280;41730;51.960;20.158;2023-02-14T12:05:46;102002.00;;;5.28;75.64
55801;BME280;41730;51.960;20.158;2023-02-14T12:08:24;102002.94;;;5.26;75.58
55801;BME280;41730;51.960;20.158;2023-02-14T12:11:04;102001.64;;;5.29;75.35
55801;BME280;41730;51.960;20.158;2023-02-14T12:13:42;102002.99;;;5.29;75.36
55801;BME280;41730;51.960;20.158;2023-02-14T12:16:25;102000.16;;;5.20;75.66
55801;BME280;41730;51.960;20.158;2023-02-14T12:19:00;102000.04;;;5.24;75.68
55801;BME280;41730;51.960;20.158;2023-02-14T12:21:49;101993.71;;;5.26;75.58
55801;BME280;41730;51.960;20.158;2023-02-14T12:24:30;101990.26;;;5.20;75.84
55801;BME280;41730;51.960;20.158;2023-02-14T12:27:09;101991.13;;;5.25;75.79
55801;BME280;41730;51.960;20.158;2023-02-14T12:29:47;101987.67;;;5.41;75.24
55801;BME280;41730;51.960;20.158;2023-02-14T12:32:26;101990.91;;;5.32;75.13
55801;BME280;41730;51.960;20.158;2023-02-14T12:35:02;101988.27;;;5.27;75.60
55801;BME280;41730;51.960;20.158;2023-02-14T12:37:45;101985.13;;;5.39;75.42
55801;BME280;41730;51.960;20.158;2023-02-14T12:40:40;101978.80;;;5.41;75.46
55801;BME280;41730;51.960;20.158;2023-02-14T12:43:46;101982.09;;;5.36;75.22
55801;BME280;41730;51.960;20.158;2023-02-14T12:46:30;101975.44;;;5.38;75.50
55801;BME280;41730;51.960;20.158;2023-02-14T12:49:25;101978.12;;;5.41;75.07
55801;BME280;41730;51.960;20.158;2023-02-14T12:52:07;101980.61;;;5.39;75.39
55801;BME280;41730;51.960;20.158;2023-02-14T12:54:52;101980.80;;;5.38;75.49
55801;BME280;41730;51.960;20.158;2023-02-14T12:57:37;101978.00;;;5.39;75.51
55801;BME280;41730;51.960;20.158;2023-02-14T13:00:26;101969.74;;;5.52;75.13
55801;BME280;41730;51.960;20.158;2023-02-14T13:03:22;101968.09;;;5.60;74.81
55801;BME280;41730;51.960;20.158;2023-02-14T13:06:00;101967.28;;;5.63;74.77
55801;BME280;41730;51.960;20.158;2023-02-14T13:08:57;101964.86;;;5.67;74.52
55801;BME280;41730;51.960;20.158;2023-02-14T13:11:40;101960.94;;;5.70;74.53
55801;BME280;41730;51.960;20.158;2023-02-14T13:14:28;101957.81;;;5.70;74.37
55801;BME280;41730;51.960;20.158;2023-02-14T13:17:06;101962.61;;;5.62;74.55
55801;BME280;41730;51.960;20.158;2023-02-14T13:19:48;101962.08;;;5.72;74.27
55801;BME280;41730;51.960;20.158;2023-02-14T13:22:24;101967.20;;;5.71;74.44
55801;BME280;41730;51.960;20.158;2023-02-14T13:25:00;101971.09;;;5.73;74.26
55801;BME280;41730;51.960;20.158;2023-02-14T13:27:38;101971.23;;;5.74;74.28
55801;BME280;41730;51.960;20.158;2023-02-14T13:30:20;101963.48;;;5.72;74.28
55801;BME280;41730;51.960;20.158;2023-02-14T13:32:57;101963.75;;;5.74;74.47
55801;BME280;41730;51.960;20.158;2023-02-14T13:35:31;101967.33;;;5.72;74.40
55801;BME280;41730;51.960;20.158;2023-02-14T13:38:10;101968.30;;;5.74;74.31
55801;BME280;41730;51.960;20.158;2023-02-14T13:40:43;101967.42;;;5.69;74.15
55801;BME280;41730;51.960;20.158;2023-02-14T13:43:45;101969.58;;;5.62;74.44
55801;BME280;41730;51.960;20.158;2023-02-14T13:46:19;101963.91;;;5.59;74.64
55801;BME280;41730;51.960;20.158;2023-02-14T13:49:00;101960.67;;;5.63;74.30
55801;BME280;41730;51.960;20.158;2023-02-14T13:51:50;101957.58;;;5.62;74.45
55801;BME280;41730;51.960;20.158;2023-02-14T13:54:29;101956.13;;;5.64;74.15
55801;BME280;41730;51.960;20.158;2023-02-14T13:57:03;101961.17;;;5.63;74.14
55801;BME280;41730;51.960;20.158;2023-02-14T14:00:28;101964.54;;;5.62;74.14
55801;BME280;41730;51.960;20.158;2023-02-14T14:03:06;101965.73;;;5.72;73.97